sensor_id;sensor_type;location;lat;lon;timestamp;pressure;altitude;pressure_sealevel;temperature;humidity
35888;BME280;21990;42.540;23.496;2023-03-20T00:01:58;93872.06;;;1.66;80.82
35888;BME280;21990;42.540;23.496;2023-03-20T00:04:24;93888.72;;;1.66;80.95
35888;BME280;21990;42.540;23.496;2023-03-20T00:06:50;93898.91;;;1.60;80.74
35888;BME280;21990;42.540;23.496;2023-03-20T00:09:15;93890.59;;;1.60;81.03
35888;BME280;21990;42.540;23.496;2023-03-20T00:11:49;93896.63;;;1.49;81.17
35888;BME280;21990;42.540;23.496;2023-03-20T00:14:18;93884.47;;;1.47;81.23
35888;BME280;21990;42.540;23.496;2023-03-20T00:16:46;93882.03;;;1.30;81.36
35888;BME280;21990;42.540;23.496;2023-03-20T00:19:20;93885.41;;;1.34;81.49
35888;BME280;21990;42.540;23.496;2023-03-20T00:21:48;93882.66;;;1.34;81.48
35888;BME280;21990;42.540;23.496;2023-03-20T00:24:15;93877.38;;;1.36;81.94
35888;BME280;21990;42.540;23.496;2023-03-20T00:26:42;93876.31;;;1.34;81.66
35888;BME280;21990;42.540;23.496;2023-03-20T00:31:46;93868.94;;;1.31;82.00
35888;BME280;21990;42.540;23.496;2023-03-20T00:34:14;93870.31;;;1.35;82.09
35888;BME280;21990;42.540;23.496;2023-03-20T00:36:39;93871.38;;;1.29;81.71
35888;BME280;21990;42.540;23.496;2023-03-20T00:39:05;93869.25;;;1.24;82.10
35888;BME280;21990;42.540;23.496;2023-03-20T00:46:31;93859.72;;;1.16;81.65
35888;BME280;21990;42.540;23.496;2023-03-20T00:48:59;93866.50;;;1.15;81.60
35888;BME280;21990;42.540;23.496;2023-03-20T00:51:26;93857.72;;;1.16;81.77
35888;BME280;21990;42.540;23.496;2023-03-20T00:53:51;93853.38;;;1.15;81.94
35888;BME280;21990;42.540;23.496;2023-03-20T00:56:31;93854.94;;;1.16;82.57
35888;BME280;21990;42.540;23.496;2023-03-20T00:58:59;93856.94;;;1.16;81.85
35888;BME280;21990;42.540;23.496;2023-03-20T01:01:25;93853.72;;;1.08;81.34
35888;BME280;21990;42.540;23.496;2023-03-20T01:03:51;93851.72;;;1.09;81.47
35888;BME280;21990;42.540;23.496;2023-03-20T01:06:17;93848.78;;;1.03;81.07
35888;BME280;21990;42.540;23.496;2023-03-20T01:08:43;93842.78;;;1.05;81.42
35888;BME280;21990;42.540;23.496;2023-03-20T01:11:10;93841.06;;;1.07;81.90
35888;BME280;21990;42.540;23.496;2023-03-20T01:13:37;93840.63;;;1.00;81.60
35888;BME280;21990;42.540;23.496;2023-03-20T01:16:04;93845.22;;;1.03;81.65
35888;BME280;21990;42.540;23.496;2023-03-20T01:18:30;93832.59;;;1.02;82.25
35888;BME280;21990;42.540;23.496;2023-03-20T01:20:56;93844.00;;;1.04;82.03
35888;BME280;21990;42.540;23.496;2023-03-20T01:23:21;93840.94;;;0.92;82.05
35888;BME280;21990;42.540;23.496;2023-03-20T01:25:48;93841.22;;;0.94;82.29
35888;BME280;21990;42.540;23.496;2023-03-20T01:28:16;93844.00;;;0.94;82.23
35888;BME280;21990;42.540;23.496;2023-03-20T01:30:42;93839.56;;;0.88;82.51
35888;BME280;21990;42.540;23.496;2023-03-20T01:33:16;93842.78;;;0.86;82.23
35888;BME280;21990;42.540;23.496;2023-03-20T01:35:43;93844.78;;;0.86;82.39
35888;BME280;21990;42.540;23.496;2023-03-20T01:38:23;93836.00;;;0.78;82.40
35888;BME280;21990;42.540;23.496;2023-03-20T01:43:29;93842.63;;;0.72;82.84
35888;BME280;21990;42.540;23.496;2023-03-20T01:51:22;93844.03;;;0.67;83.24
35888;BME280;21990;42.540;23.496;2023-03-20T01:53:58;93847.13;;;0.69;82.75
35888;BME280;21990;42.540;23.496;2023-03-20T01:56:28;93846.66;;;0.62;81.98
35888;BME280;21990;42.540;23.496;2023-03-20T01:58:59;93841.13;;;0.62;82.18
35888;BME280;21990;42.540;23.496;2023-03-20T02:01:26;93838.50;;;0.58;82.60
35888;BME280;21990;42.540;23.496;2023-03-20T02:03:53;93845.09;;;0.61;82.91
35888;BME280;21990;42.540;23.496;2023-03-20T02:06:21;93835.56;;;0.53;82.54
35888;BME280;21990;42.540;23.496;2023-03-20T02:08:49;93836.63;;;0.55;82.99
35888;BME280;21990;42.540;23.496;2023-03-20T02:11:17;93826.47;;;0.34;82.86
35888;BME280;21990;42.540;23.496;2023-03-20T02:13:44;93835.69;;;0.22;83.58
35888;BME280;21990;42.540;23.496;2023-03-20T02:16:13;93832.00;;;0.34;83.18
35888;BME280;21990;42.540;23.496;2023-03-20T02:18:41;93833.38;;;0.29;82.72
35888;BME280;21990;42.540;23.496;2023-03-20T02:26:52;93824.22;;;-0.08;84.20
35888;BME280;21990;42.540;23.496;2023-03-20T02:32:51;93829.34;;;0.03;84.54
35888;BME280;21990;42.540;23.496;2023-03-20T02:35:36;93821.81;;;0.04;84.82
35888;BME280;21990;42.540;23.496;2023-03-20T02:41:06;93831.50;;;0.08;84.95
35888;BME280;21990;42.540;23.496;2023-03-20T02:44:40;93827.78;;;-0.07;84.52
35888;BME280;21990;42.540;23.496;2023-03-20T02:51:45;93831.03;;;0.00;84.42
35888;BME280;21990;42.540;23.496;2023-03-20T02:57:20;93815.81;;;0.05;84.62
35888;BME280;21990;42.540;23.496;2023-03-20T02:59:55;93828.09;;;0.04;84.45
35888;BME280;21990;42.540;23.496;2023-03-20T03:02:35;93828.28;;;0.10;84.30
35888;BME280;21990;42.540;23.496;2023-03-20T03:05:08;93818.41;;;0.09;83.88
35888;BME280;21990;42.540;23.496;2023-03-20T03:07:37;93825.00;;;-0.07;83.80
35888;BME280;21990;42.540;23.496;2023-03-20T03:10:12;93815.31;;;-0.03;83.82
35888;BME280;21990;42.540;23.496;2023-03-20T03:12:43;93814.88;;;-0.01;83.70
35888;BME280;21990;42.540;23.496;2023-03-20T03:15:26;93820.38;;;-0.10;83.82
35888;BME280;21990;42.540;23.496;2023-03-20T03:17:54;93820.09;;;-0.12;84.18
35888;BME280;21990;42.540;23.496;2023-03-20T03:20:26;93824.09;;;-0.13;84.67
35888;BME280;21990;42.540;23.496;2023-03-20T03:22:53;93815.81;;;-0.04;84.45
35888;BME280;21990;42.540;23.496;2023-03-20T03:25:22;93814.56;;;-0.03;84.21
35888;BME280;21990;42.540;23.496;2023-03-20T03:28:03;93816.88;;;-0.02;84.01
35888;BME280;21990;42.540;23.496;2023-03-20T03:30:32;93819.16;;;-0.09;83.97
35888;BME280;21990;42.540;23.496;2023-03-20T03:33:19;93813.16;;;-0.08;83.78
35888;BME280;21990;42.540;23.496;2023-03-20T03:35:46;93813.00;;;-0.13;83.63
35888;BME280;21990;42.540;23.496;2023-03-20T03:38:33;93817.13;;;-0.18;83.47
35888;BME280;21990;42.540;23.496;2023-03-20T03:44:26;93816.84;;;-0.20;84.13
35888;BME280;21990;42.540;23.496;2023-03-20T03:46:57;93812.81;;;-0.19;84.21
35888;BME280;21990;42.540;23.496;2023-03-20T03:49:34;93816.69;;;-0.16;84.32
35888;BME280;21990;42.540;23.496;2023-03-20T03:52:09;93808.94;;;-0.30;84.40
35888;BME280;21990;42.540;23.496;2023-03-20T03:54:51;93814.97;;;-0.32;84.27
35888;BME280;21990;42.540;23.496;2023-03-20T03:57:24;93804.19;;;-0.30;84.72
35888;BME280;21990;42.540;23.496;2023-03-20T03:59:53;93806.19;;;-0.30;83.71
35888;BME280;21990;42.540;23.496;2023-03-20T04:02:21;93810.31;;;-0.35;83.96
35888;BME280;21990;42.540;23.496;2023-03-20T04:04:50;93809.44;;;-0.32;84.13
35888;BME280;21990;42.540;23.496;2023-03-20T04:07:17;93807.53;;;-0.35;83.87
35888;BME280;21990;42.540;23.496;2023-03-20T04:09:42;93812.34;;;-0.35;83.85
35888;BME280;21990;42.540;23.496;2023-03-20T04:12:38;93820.66;;;-0.35;83.87
35888;BME280;21990;42.540;23.496;2023-03-20T04:15:04;93813.69;;;-0.40;83.84
35888;BME280;21990;42.540;23.496;2023-03-20T04:17:30;93807.97;;;-0.45;83.61
35888;BME280;21990;42.540;23.496;2023-03-20T04:19:56;93806.44;;;-0.47;84.43
35888;BME280;21990;42.540;23.496;2023-03-20T04:22:21;93802.31;;;-0.42;84.28
35888;BME280;21990;42.540;23.496;2023-03-20T04:24:47;93811.22;;;-0.38;84.61
35888;BME280;21990;42.540;23.496;2023-03-20T04:27:13;93812.19;;;-0.32;84.26
35888;BME280;21990;42.540;23.496;2023-03-20T04:29:38;93805.06;;;-0.51;84.54
35888;BME280;21990;42.540;23.496;2023-03-20T04:32:05;93809.97;;;-0.46;84.57
35888;BME280;21990;42.540;23.496;2023-03-20T04:34:30;93809.09;;;-0.43;84.53
35888;BME280;21990;42.540;23.496;2023-03-20T04:36:56;93815.38;;;-0.42;84.18
35888;BME280;21990;42.540;23.496;2023-03-20T04:39:21;93817.53;;;-0.37;84.46
35888;BME280;21990;42.540;23.496;2023-03-20T04:41:47;93815.41;;;-0.33;83.93
35888;BME280;21990;42.540;23.496;2023-03-20T04:44:12;93815.06;;;-0.44;84.83
35888;BME280;21990;42.540;23.496;2023-03-20T04:46:38;93814.16;;;-0.41;84.72
35888;BME280;21990;42.540;23.496;2023-03-20T04:49:03;93814.16;;;-0.41;85.06
35888;BME280;21990;42.540;23.496;2023-03-20T04:51:29;93808.78;;;-0.36;84.79
35888;BME280;21990;42.540;23.496;2023-03-20T04:53:54;93808.19;;;-0.31;85.47
35888;BME280;21990;42.540;23.496;2023-03-20T04:56:20;93805.44;;;-0.22;84.89
35888;BME280;21990;42.540;23.496;2023-03-20T04:58:46;93816.06;;;-0.20;85.20
35888;BME280;21990;42.540;23.496;2023-03-20T05:01:11;93801.72;;;-0.37;85.88
35888;BME280;21990;42.540;23.496;2023-03-20T05:03:37;93811.13;;;-0.25;85.87
35888;BME280;21990;42.540;23.496;2023-03-20T05:06:03;93799.28;;;-0.26;85.97
35888;BME280;21990;42.540;23.496;2023-03-20T05:08:29;93816.78;;;-0.38;85.80
35888;BME280;21990;42.540;23.496;2023-03-20T05:10:55;93809.72;;;-0.30;86.36
35888;BME280;21990;42.540;23.496;2023-03-20T05:13:21;93805.91;;;-0.14;86.75
35888;BME280;21990;42.540;23.496;2023-03-20T05:15:46;93816.09;;;-0.02;86.01
35888;BME280;21990;42.540;23.496;2023-03-20T05:18:12;93815.81;;;0.14;86.69
35888;BME280;21990;42.540;23.496;2023-03-20T05:20:38;93818.63;;;0.23;86.27
35888;BME280;21990;42.540;23.496;2023-03-20T05:23:03;93823.84;;;0.39;86.56
35888;BME280;21990;42.540;23.496;2023-03-20T05:25:30;93814.75;;;0.57;87.38
35888;BME280;21990;42.540;23.496;2023-03-20T05:27:55;93829.22;;;0.88;86.88
35888;BME280;21990;42.540;23.496;2023-03-20T05:30:21;93822.53;;;1.22;86.18
35888;BME280;21990;42.540;23.496;2023-03-20T05:32:50;93826.41;;;1.67;86.19
35888;BME280;21990;42.540;23.496;2023-03-20T05:35:17;93824.19;;;2.04;84.32
35888;BME280;21990;42.540;23.496;2023-03-20T05:37:43;93804.94;;;2.24;82.08
35888;BME280;21990;42.540;23.496;2023-03-20T05:40:11;93808.16;;;2.22;80.88
35888;BME280;21990;42.540;23.496;2023-03-20T05:42:37;93818.28;;;2.34;80.34
35888;BME280;21990;42.540;23.496;2023-03-20T05:45:03;93811.31;;;2.39;80.82
35888;BME280;21990;42.540;23.496;2023-03-20T05:47:29;93816.41;;;2.41;80.39
35888;BME280;21990;42.540;23.496;2023-03-20T05:49:55;93815.09;;;2.51;82.37
35888;BME280;21990;42.540;23.496;2023-03-20T05:52:21;93807.69;;;2.86;80.95
35888;BME280;21990;42.540;23.496;2023-03-20T05:54:46;93823.38;;;3.27;79.30
35888;BME280;21990;42.540;23.496;2023-03-20T05:57:12;93824.81;;;3.67;82.51
35888;BME280;21990;42.540;23.496;2023-03-20T05:59:37;93817.72;;;4.56;77.32
35888;BME280;21990;42.540;23.496;2023-03-20T06:02:03;93813.69;;;4.77;80.03
35888;BME280;21990;42.540;23.496;2023-03-20T06:04:28;93820.28;;;5.25;77.74
35888;BME280;21990;42.540;23.496;2023-03-20T06:06:54;93811.00;;;5.60;75.73
35888;BME280;21990;42.540;23.496;2023-03-20T06:09:20;93812.00;;;5.88;76.10
35888;BME280;21990;42.540;23.496;2023-03-20T06:11:45;93810.59;;;6.04;71.55
35888;BME280;21990;42.540;23.496;2023-03-20T06:14:11;93820.72;;;6.33;71.53
35888;BME280;21990;42.540;23.496;2023-03-20T06:16:36;93802.56;;;6.59;71.58
35888;BME280;21990;42.540;23.496;2023-03-20T06:19:02;93811.09;;;6.87;70.76
35888;BME280;21990;42.540;23.496;2023-03-20T06:21:27;93821.41;;;7.29;67.20
35888;BME280;21990;42.540;23.496;2023-03-20T06:23:53;93811.78;;;7.47;69.54
35888;BME280;21990;42.540;23.496;2023-03-20T06:26:19;93811.53;;;7.61;68.80
35888;BME280;21990;42.540;23.496;2023-03-20T06:28:45;93799.84;;;7.74;67.76
35888;BME280;21990;42.540;23.496;2023-03-20T06:31:11;93805.44;;;7.85;65.02
35888;BME280;21990;42.540;23.496;2023-03-20T06:33:36;93805.19;;;7.89;66.97
35888;BME280;21990;42.540;23.496;2023-03-20T06:36:03;93808.50;;;8.15;67.59
35888;BME280;21990;42.540;23.496;2023-03-20T06:38:29;93801.59;;;7.94;65.21
35888;BME280;21990;42.540;23.496;2023-03-20T06:40:55;93803.63;;;8.49;69.61
35888;BME280;21990;42.540;23.496;2023-03-20T06:43:21;93814.78;;;8.77;69.42
35888;BME280;21990;42.540;23.496;2023-03-20T06:45:46;93808.63;;;8.89;65.05
35888;BME280;21990;42.540;23.496;2023-03-20T06:48:12;93807.56;;;9.50;65.03
35888;BME280;21990;42.540;23.496;2023-03-20T06:50:38;93799.09;;;9.09;62.78
35888;BME280;21990;42.540;23.496;2023-03-20T06:53:04;93803.19;;;9.08;64.27
35888;BME280;21990;42.540;23.496;2023-03-20T06:55:29;93795.78;;;9.05;65.25
35888;BME280;21990;42.540;23.496;2023-03-20T06:57:55;93795.28;;;9.01;64.03
35888;BME280;21990;42.540;23.496;2023-03-20T07:00:21;93794.91;;;9.27;65.21
35888;BME280;21990;42.540;23.496;2023-03-20T07:02:47;93782.56;;;9.82;64.45
35888;BME280;21990;42.540;23.496;2023-03-20T07:05:14;93781.16;;;9.99;62.00
35888;BME280;21990;42.540;23.496;2023-03-20T07:07:40;93783.59;;;10.44;64.51
35888;BME280;21990;42.540;23.496;2023-03-20T07:10:06;93778.72;;;10.44;64.68
35888;BME280;21990;42.540;23.496;2023-03-20T07:12:34;93779.13;;;11.21;63.82
35888;BME280;21990;42.540;23.496;2023-03-20T07:15:00;93780.78;;;11.73;63.09
35888;BME280;21990;42.540;23.496;2023-03-20T07:17:25;93788.50;;;11.11;57.50
35888;BME280;21990;42.540;23.496;2023-03-20T07:19:50;93786.34;;;10.74;58.05
35888;BME280;21990;42.540;23.496;2023-03-20T07:22:21;93790.38;;;11.03;58.83
35888;BME280;21990;42.540;23.496;2023-03-20T07:24:47;93782.25;;;10.75;57.21
35888;BME280;21990;42.540;23.496;2023-03-20T07:27:13;93775.56;;;10.24;58.24
35888;BME280;21990;42.540;23.496;2023-03-20T07:29:39;93774.28;;;10.25;58.30
35888;BME280;21990;42.540;23.496;2023-03-20T07:32:04;93771.16;;;9.98;56.97
35888;BME280;21990;42.540;23.496;2023-03-20T07:34:30;93773.91;;;10.04;63.65
35888;BME280;21990;42.540;23.496;2023-03-20T07:36:56;93765.91;;;9.84;58.40
35888;BME280;21990;42.540;23.496;2023-03-20T07:39:21;93769.03;;;10.10;61.38
35888;BME280;21990;42.540;23.496;2023-03-20T07:41:47;93765.91;;;10.14;61.79
35888;BME280;21990;42.540;23.496;2023-03-20T07:44:12;93753.19;;;10.37;59.26
35888;BME280;21990;42.540;23.496;2023-03-20T07:46:39;93755.06;;;10.77;62.29
35888;BME280;21990;42.540;23.496;2023-03-20T07:49:05;93753.13;;;11.28;58.74
35888;BME280;21990;42.540;23.496;2023-03-20T07:51:31;93756.56;;;11.21;54.30
35888;BME280;21990;42.540;23.496;2023-03-20T07:53:57;93754.03;;;11.18;54.73
35888;BME280;21990;42.540;23.496;2023-03-20T07:56:23;93744.75;;;11.41;57.95
35888;BME280;21990;42.540;23.496;2023-03-20T07:58:48;93740.94;;;11.58;58.03
35888;BME280;21990;42.540;23.496;2023-03-20T08:01:14;93741.53;;;11.88;55.28
35888;BME280;21990;42.540;23.496;2023-03-20T08:03:39;93740.41;;;11.78;52.04
35888;BME280;21990;42.540;23.496;2023-03-20T08:06:05;93730.84;;;11.81;54.98
35888;BME280;21990;42.540;23.496;2023-03-20T08:08:34;93736.63;;;11.88;53.27
35888;BME280;21990;42.540;23.496;2023-03-20T08:11:00;93731.44;;;11.93;50.42
35888;BME280;21990;42.540;23.496;2023-03-20T08:13:26;93729.72;;;12.03;53.37
35888;BME280;21990;42.540;23.496;2023-03-20T08:15:52;93740.44;;;12.23;53.72
35888;BME280;21990;42.540;23.496;2023-03-20T08:18:17;93736.53;;;12.26;53.65
35888;BME280;21990;42.540;23.496;2023-03-20T08:20:44;93732.56;;;12.48;52.70
35888;BME280;21990;42.540;23.496;2023-03-20T08:23:10;93747.13;;;12.65;52.35
35888;BME280;21990;42.540;23.496;2023-03-20T08:25:36;93732.69;;;12.81;54.64
35888;BME280;21990;42.540;23.496;2023-03-20T08:28:02;93733.66;;;12.97;52.09
35888;BME280;21990;42.540;23.496;2023-03-20T08:30:28;93746.31;;;13.22;52.20
35888;BME280;21990;42.540;23.496;2023-03-20T08:32:53;93743.31;;;13.41;53.69
35888;BME280;21990;42.540;23.496;2023-03-20T08:35:19;93741.38;;;13.70;56.85
35888;BME280;21990;42.540;23.496;2023-03-20T08:37:45;93733.28;;;13.87;51.71
35888;BME280;21990;42.540;23.496;2023-03-20T08:40:11;93735.03;;;14.11;50.77
35888;BME280;21990;42.540;23.496;2023-03-20T08:42:37;93732.28;;;14.39;51.69
35888;BME280;21990;42.540;23.496;2023-03-20T08:45:03;93729.47;;;14.67;49.55
35888;BME280;21990;42.540;23.496;2023-03-20T08:47:28;93718.63;;;14.87;49.58
35888;BME280;21990;42.540;23.496;2023-03-20T08:49:54;93722.59;;;15.12;49.66
35888;BME280;21990;42.540;23.496;2023-03-20T08:52:20;93710.22;;;15.38;50.23
35888;BME280;21990;42.540;23.496;2023-03-20T08:54:46;93717.25;;;15.37;46.69
35888;BME280;21990;42.540;23.496;2023-03-20T08:57:11;93715.94;;;15.45;44.81
35888;BME280;21990;42.540;23.496;2023-03-20T08:59:37;93709.00;;;15.54;43.89
35888;BME280;21990;42.540;23.496;2023-03-20T09:02:02;93712.84;;;15.72;44.63
35888;BME280;21990;42.540;23.496;2023-03-20T09:04:28;93698.09;;;15.88;44.19
35888;BME280;21990;42.540;23.496;2023-03-20T09:06:53;93701.75;;;16.11;46.02
35888;BME280;21990;42.540;23.496;2023-03-20T09:09:19;93701.22;;;16.28;44.27
35888;BME280;21990;42.540;23.496;2023-03-20T09:11:50;93689.84;;;16.51;44.81
35888;BME280;21990;42.540;23.496;2023-03-20T09:14:16;93692.91;;;16.68;45.82
35888;BME280;21990;42.540;23.496;2023-03-20T09:16:41;93688.34;;;16.80;42.85
35888;BME280;21990;42.540;23.496;2023-03-20T09:19:07;93696.88;;;16.88;42.09
35888;BME280;21990;42.540;23.496;2023-03-20T09:21:32;93687.34;;;17.00;43.46
35888;BME280;21990;42.540;23.496;2023-03-20T09:23:58;93687.72;;;17.04;42.32
35888;BME280;21990;42.540;23.496;2023-03-20T09:26:23;93682.72;;;17.20;43.58
35888;BME280;21990;42.540;23.496;2023-03-20T09:28:49;93681.38;;;17.29;43.85
35888;BME280;21990;42.540;23.496;2023-03-20T09:31:14;93675.59;;;17.51;43.21
35888;BME280;21990;42.540;23.496;2023-03-20T09:33:40;93672.34;;;17.63;42.46
35888;BME280;21990;42.540;23.496;2023-03-20T09:36:06;93681.38;;;17.84;41.88
35888;BME280;21990;42.540;23.496;2023-03-20T09:38:35;93659.44;;;17.94;41.71
35888;BME280;21990;42.540;23.496;2023-03-20T09:41:02;93672.63;;;18.14;41.57
35888;BME280;21990;42.540;23.496;2023-03-20T09:51:47;93656.19;;;18.55;41.84
35888;BME280;21990;42.540;23.496;2023-03-20T09:54:34;93643.78;;;18.60;40.16
35888;BME280;21990;42.540;23.496;2023-03-20T09:57:02;93654.19;;;18.65;39.69
35888;BME280;21990;42.540;23.496;2023-03-20T09:59:29;93639.84;;;18.72;38.74
35888;BME280;21990;42.540;23.496;2023-03-20T10:02:05;93649.22;;;18.90;38.78
35888;BME280;21990;42.540;23.496;2023-03-20T10:04:32;93637.72;;;18.98;39.36
35888;BME280;21990;42.540;23.496;2023-03-20T10:07:02;93639.50;;;19.10;34.75
35888;BME280;21990;42.540;23.496;2023-03-20T10:09:29;93641.59;;;19.10;33.74
35888;BME280;21990;42.540;23.496;2023-03-20T10:12:25;93620.56;;;19.15;34.63
35888;BME280;21990;42.540;23.496;2023-03-20T10:15:34;93619.91;;;19.24;32.72
35888;BME280;21990;42.540;23.496;2023-03-20T10:18:12;93616.03;;;19.29;32.58
35888;BME280;21990;42.540;23.496;2023-03-20T10:20:49;93614.75;;;19.39;32.19
35888;BME280;21990;42.540;23.496;2023-03-20T10:26:13;93592.16;;;19.51;33.37
35888;BME280;21990;42.540;23.496;2023-03-20T10:28:56;93599.00;;;19.65;32.45
35888;BME280;21990;42.540;23.496;2023-03-20T10:31:31;93589.09;;;19.66;33.23
35888;BME280;21990;42.540;23.496;2023-03-20T10:41:39;93574.47;;;19.89;31.94
35888;BME280;21990;42.540;23.496;2023-03-20T10:44:15;93577.31;;;19.89;32.69
35888;BME280;21990;42.540;23.496;2023-03-20T10:46:46;93584.78;;;20.02;32.27
35888;BME280;21990;42.540;23.496;2023-03-20T10:49:20;93579.38;;;20.06;33.04
35888;BME280;21990;42.540;23.496;2023-03-20T10:51:58;93572.31;;;20.07;30.74
35888;BME280;21990;42.540;23.496;2023-03-20T10:54:34;93569.91;;;20.13;30.72
35888;BME280;21990;42.540;23.496;2023-03-20T10:57:03;93569.00;;;20.10;31.94
35888;BME280;21990;42.540;23.496;2023-03-20T10:59:39;93558.63;;;20.15;30.64
35888;BME280;21990;42.540;23.496;2023-03-20T11:02:12;93564.63;;;20.09;30.68
35888;BME280;21990;42.540;23.496;2023-03-20T11:04:38;93567.38;;;20.17;29.97
35888;BME280;21990;42.540;23.496;2023-03-20T11:07:18;93562.44;;;20.27;31.55
35888;BME280;21990;42.540;23.496;2023-03-20T11:12:33;93547.38;;;20.26;30.29
35888;BME280;21990;42.540;23.496;2023-03-20T11:15:03;93542.16;;;20.32;30.21
35888;BME280;21990;42.540;23.496;2023-03-20T11:17:29;93543.53;;;20.41;31.62
35888;BME280;21990;42.540;23.496;2023-03-20T11:20:02;93543.69;;;20.43;29.88
35888;BME280;21990;42.540;23.496;2023-03-20T11:22:28;93535.09;;;20.43;30.01
35888;BME280;21990;42.540;23.496;2023-03-20T11:24:57;93530.75;;;20.42;31.20
35888;BME280;21990;42.540;23.496;2023-03-20T11:27:27;93529.22;;;20.51;29.04
35888;BME280;21990;42.540;23.496;2023-03-20T11:29:54;93522.94;;;20.62;29.47
35888;BME280;21990;42.540;23.496;2023-03-20T11:35:29;93528.97;;;20.66;31.52
35888;BME280;21990;42.540;23.496;2023-03-20T11:38:08;93522.19;;;20.71;29.92
35888;BME280;21990;42.540;23.496;2023-03-20T11:40:34;93513.91;;;20.75;29.35
35888;BME280;21990;42.540;23.496;2023-03-20T11:45:27;93518.41;;;20.78;29.85
35888;BME280;21990;42.540;23.496;2023-03-20T11:48:00;93515.09;;;20.72;30.17
35888;BME280;21990;42.540;23.496;2023-03-20T11:50:32;93513.75;;;20.73;30.06
35888;BME280;21990;42.540;23.496;2023-03-20T11:53:04;93507.88;;;20.71;29.70
35888;BME280;21990;42.540;23.496;2023-03-20T11:56:05;93495.19;;;20.74;28.11
35888;BME280;21990;42.540;23.496;2023-03-20T11:58:33;93507.56;;;20.67;28.76
35888;BME280;21990;42.540;23.496;2023-03-20T12:01:03;93502.13;;;20.71;27.07
35888;BME280;21990;42.540;23.496;2023-03-20T12:03:51;93498.34;;;20.49;27.19
35888;BME280;21990;42.540;23.496;2023-03-20T12:06:23;93506.03;;;20.47;27.54
35888;BME280;21990;42.540;23.496;2023-03-20T12:08:58;93496.56;;;20.54;27.47
35888;BME280;21990;42.540;23.496;2023-03-20T12:12:09;93500.19;;;20.54;28.10
35888;BME280;21990;42.540;23.496;2023-03-20T12:15:03;93500.00;;;20.43;27.25
35888;BME280;21990;42.540;23.496;2023-03-20T12:17:52;93494.28;;;20.52;27.82
35888;BME280;21990;42.540;23.496;2023-03-20T12:25:46;93483.44;;;20.60;29.52
35888;BME280;21990;42.540;23.496;2023-03-20T12:28:37;93480.91;;;20.64;27.50
35888;BME280;21990;42.540;23.496;2023-03-20T12:34:09;93473.38;;;20.69;28.00
35888;BME280;21990;42.540;23.496;2023-03-20T12:36:41;93469.91;;;20.61;26.39
35888;BME280;21990;42.540;23.496;2023-03-20T12:39:16;93463.88;;;20.57;25.35
35888;BME280;21990;42.540;23.496;2023-03-20T12:44:32;93469.72;;;20.59;28.34
35888;BME280;21990;42.540;23.496;2023-03-20T12:47:14;93463.56;;;20.72;28.76
35888;BME280;21990;42.540;23.496;2023-03-20T12:52:19;93453.31;;;20.59;25.45
35888;BME280;21990;42.540;23.496;2023-03-20T12:55:04;93453.47;;;20.71;25.90
35888;BME280;21990;42.540;23.496;2023-03-20T12:57:40;93451.50;;;20.83;25.31
35888;BME280;21990;42.540;23.496;2023-03-20T13:00:39;93442.75;;;20.91;27.16
35888;BME280;21990;42.540;23.496;2023-03-20T13:06:31;93439.28;;;20.92;25.57
35888;BME280;21990;42.540;23.496;2023-03-20T13:14:04;93430.56;;;20.71;24.42
35888;BME280;21990;42.540;23.496;2023-03-20T13:20:08;93433.44;;;20.80;26.60
35888;BME280;21990;42.540;23.496;2023-03-20T13:31:35;93417.44;;;20.87;26.51
35888;BME280;21990;42.540;23.496;2023-03-20T13:39:05;93404.81;;;20.42;25.91
35888;BME280;21990;42.540;23.496;2023-03-20T13:41:35;93393.06;;;20.57;27.22
35888;BME280;21990;42.540;23.496;2023-03-20T13:44:03;93397.41;;;20.58;27.62
35888;BME280;21990;42.540;23.496;2023-03-20T13:49:09;93388.69;;;20.66;25.60
35888;BME280;21990;42.540;23.496;2023-03-20T13:51:47;93396.94;;;20.71;26.37
35888;BME280;21990;42.540;23.496;2023-03-20T14:00:17;93384.00;;;20.61;26.77
35888;BME280;21990;42.540;23.496;2023-03-20T14:05:22;93383.09;;;20.39;27.05
35888;BME280;21990;42.540;23.496;2023-03-20T14:07:55;93385.81;;;20.37;26.88
35888;BME280;21990;42.540;23.496;2023-03-20T14:12:56;93382.63;;;20.14;25.42
35888;BME280;21990;42.540;23.496;2023-03-20T14:15:27;93379.75;;;20.14;28.11
35888;BME280;21990;42.540;23.496;2023-03-20T14:17:55;93377.94;;;19.99;25.79
35888;BME280;21990;42.540;23.496;2023-03-20T14:20:34;93378.09;;;20.01;26.81
35888;BME280;21990;42.540;23.496;2023-03-20T14:23:01;93383.34;;;20.05;27.53
35888;BME280;21990;42.540;23.496;2023-03-20T14:25:31;93373.13;;;20.02;29.07
35888;BME280;21990;42.540;23.496;2023-03-20T14:28:05;93374.31;;;20.08;29.14
35888;BME280;21990;42.540;23.496;2023-03-20T14:32:59;93358.22;;;19.94;28.51
35888;BME280;21990;42.540;23.496;2023-03-20T14:35:28;93364.53;;;19.92;28.92
35888;BME280;21990;42.540;23.496;2023-03-20T14:40:27;93357.13;;;19.89;31.04
35888;BME280;21990;42.540;23.496;2023-03-20T14:43:03;93350.03;;;19.80;29.96
35888;BME280;21990;42.540;23.496;2023-03-20T14:48:43;93344.31;;;19.71;29.94
35888;BME280;21990;42.540;23.496;2023-03-20T14:56:50;93348.03;;;19.54;31.30
35888;BME280;21990;42.540;23.496;2023-03-20T14:59:20;93350.81;;;19.35;30.67
35888;BME280;21990;42.540;23.496;2023-03-20T15:01:59;93344.91;;;19.23;30.73
35888;BME280;21990;42.540;23.496;2023-03-20T15:04:34;93348.53;;;19.24;30.73
35888;BME280;21990;42.540;23.496;2023-03-20T15:07:14;93356.94;;;19.22;31.73
35888;BME280;21990;42.540;23.496;2023-03-20T15:09:43;93354.03;;;19.12;32.22
35888;BME280;21990;42.540;23.496;2023-03-20T15:12:12;93348.69;;;18.99;31.69
35888;BME280;21990;42.540;23.496;2023-03-20T15:14:43;93346.25;;;18.86;31.18
35888;BME280;21990;42.540;23.496;2023-03-20T15:17:17;93349.97;;;18.79;32.09
35888;BME280;21990;42.540;23.496;2023-03-20T15:19:44;93348.81;;;18.65;32.41